This is the latest recevied weather packets stored in our database for station/object IK2YOU-3. If no packets are shown the sender has not sent any weather packets the latest 1 day(s).
| Time | Temp. | Humidity | Pressure | Rain* | Wind** | Luminosity | Snow |
|---|---|---|---|---|---|---|---|
| 1778088245 | 16.67° C | 76% | 1005.2 hPa | 0 mm | - | 26 W/m² | - |
| 1778085845 | 17.22° C | 75% | 1004.5 hPa | 0 mm | - | 109 W/m² | - |
| 1778082846 | 21.67° C | 56% | 1003.4 hPa | 0 mm | - | 238 W/m² | - |
| 1778081645 | 21.67° C | 62% | 1003.4 hPa | 0 mm | - | 68 W/m² | - |
| 1778079846 | 22.22° C | 69% | 1003.5 hPa | 0 mm | - | 346 W/m² | - |
| 1778079245 | 21.67° C | 72% | 1003.6 hPa | 0 mm | - | 326 W/m² | - |
| 1778078772 | 21.67° C | 75% | 1003.7 hPa | 0 mm | - | 367 W/m² | - |
| 1778077446 | 22.22° C | 72% | 1003.9 hPa | 0 mm | - | 368 W/m² | - |
| 1778076845 | 21.67° C | 71% | 1004.1 hPa | 0 mm | - | 402 W/m² | - |
| 1778075646 | 21.67° C | 71% | 1004.5 hPa | 0 mm | - | 459 W/m² | - |
| 1778075046 | 21.67° C | 72% | 1004.5 hPa | 0 mm | - | 470 W/m² | - |
| 1778073847 | 21.67° C | 73% | 1004.8 hPa | 0 mm | - | 194 W/m² | - |
| 1778072046 | 21.11° C | 74% | 1005 hPa | 0 mm | - | 237 W/m² | - |
| 1778071446 | 21.11° C | 76% | 1005 hPa | 0 mm | - | 647 W/m² | - |
| 1778068573 | 19.44° C | 83% | 1005.3 hPa | 0 mm | - | 169 W/m² | - |
| 1778067974 | 19.44° C | 83% | 1005.4 hPa | 0 mm | - | 649 W/m² | - |
| 1778067246 | 19.44° C | 83% | 1005.6 hPa | 0 mm | - | 197 W/m² | - |
| 1778064845 | 17.22° C | 85% | 1005.7 hPa | 0 mm | - | 143 W/m² | - |
| 1778064245 | 17.22° C | 84% | 1005.8 hPa | 0 mm | - | 143 W/m² | - |
| 1778063658 | 17.78° C | 84% | 1005.8 hPa | 0 mm | - | 212 W/m² | - |
| 1778063045 | 17.78° C | 84% | 1005.8 hPa | 0 mm | - | 319 W/m² | - |
| 1778061846 | 17.78° C | 83% | 1005.9 hPa | 0 mm | - | 229 W/m² | - |
| 1778061261 | 17.22° C | 81% | 1005.8 hPa | 0 mm | - | 357 W/m² | - |
| 1778059445 | 16.11° C | 68% | 1005.9 hPa | 1.02 mm | - | 346 W/m² | - |
| 1778058374 | 15° C | 68% | 1005.8 hPa | 3.3 mm | - | 248 W/m² | - |
* Rain latest hour (hover to see other rain measurements)
** Current wind speed in m/s (hover to see current wind gust speed)